Big Springs, Nebraska
Current Conditions -  °F | °C
As of 3:15 PM on Sunday 23 Nov 2014 (Local Time) from KOGA Reporting Station
Clear Clear  
Wind Chill: 35°   Ceiling: Unl
Heat Index: 45°   Visibility: 10mi
Dew Point: 15°   Wind: 28mph
Humidity: 31%   Direction: 340°NNW
Pressure: 29.7"   Gusts: 43mph
Location:  41.06°N, 102.07°W
Report Text: KOGA 232215Z AUTO 34024G37KT 10SM CLR 07/M09 A2970 RMK AO2 T00711093
Loading
Personal Weather Stations






























Interactive Weather Map New forecast layout! Learn more

10-Day Weather Forecast

Advertisements
Track Severe Weather on mobile